Time;durP1;ratioP1;P1;durP2;ratioP2;P2;SDS_P1;SDS_P2;PMS_P1;PMS_P2;Temp;Humidity;BMP_temperature;BMP_pressure;BME280_temperature;BME280_humidity;BME280_pressure;Samples;Min_cycle;Max_cycle;Signal;HPM_P1;HPM_P2
2022/09/06 00:00:28;;;;;;;2.75;1.70;;;;;;;;;;4992411;28;20041;-39
2022/09/06 00:02:54;;;;;;;2.70;1.52;;;;;;;;;;4974251;28;20030;-39
2022/09/06 00:05:20;;;;;;;4.13;1.80;;;;;;;;;;4999421;28;20040;-39
2022/09/06 00:07:46;;;;;;;3.40;1.88;;;;;;;;;;4991797;28;20500;-39
2022/09/06 00:10:12;;;;;;;1.98;1.60;;;;;;;;;;4993145;28;20484;-39
2022/09/06 00:12:39;;;;;;;3.40;1.80;;;;;;;;;;4991617;28;20101;-47
2022/09/06 00:15:05;;;;;;;2.22;1.77;;;;;;;;;;4992168;28;20092;-39
2022/09/06 00:17:31;;;;;;;2.92;2.22;;;;;;;;;;4992100;28;20514;-39
2022/09/06 00:19:58;;;;;;;2.60;1.75;;;;;;;;;;4991598;28;20039;-39
2022/09/06 00:22:24;;;;;;;2.40;1.60;;;;;;;;;;4994340;28;20037;-39
2022/09/06 00:24:50;;;;;;;2.90;2.00;;;;;;;;;;4995534;28;20027;-39
2022/09/06 00:27:16;;;;;;;2.47;2.00;;;;;;;;;;4996366;28;20349;-39
2022/09/06 00:29:42;;;;;;;2.30;1.60;;;;;;;;;;4995119;28;20026;-39
2022/09/06 00:32:08;;;;;;;2.70;1.80;;;;;;;;;;4996285;28;20367;-40
2022/09/06 00:34:34;;;;;;;1.80;1.58;;;;;;;;;;4995924;28;20379;-39
2022/09/06 00:37:00;;;;;;;2.10;1.58;;;;;;;;;;4995282;28;20106;-39
2022/09/06 00:39:26;;;;;;;2.85;2.05;;;;;;;;;;4996620;28;20449;-39
2022/09/06 00:41:52;;;;;;;2.55;1.70;;;;;;;;;;4995011;28;20038;-39
2022/09/06 00:44:18;;;;;;;3.17;1.73;;;;;;;;;;4996077;28;20448;-39
2022/09/06 00:46:45;;;;;;;2.33;1.65;;;;;;;;;;4995009;28;20399;-39
2022/09/06 00:49:15;;;;;;;2.30;1.75;;;;;;;;;;4995622;28;20031;-39
2022/09/06 00:51:41;;;;;;;2.38;1.65;;;;;;;;;;4995228;28;20077;-49
2022/09/06 00:54:08;;;;;;;2.72;1.85;;;;;;;;;;4995781;28;20110;-40
2022/09/06 00:56:37;;;;;;;2.53;1.75;;;;;;;;;;4995504;28;20038;-39
2022/09/06 00:59:03;;;;;;;2.15;1.80;;;;;;;;;;4995221;28;20077;-39
2022/09/06 01:01:29;;;;;;;2.20;1.70;;;;;;;;;;4995609;28;20037;-39
2022/09/06 01:03:55;;;;;;;2.75;1.88;;;;;;;;;;4994780;28;20022;-39
2022/09/06 01:06:44;;;;;;;2.17;1.60;;;;;;;;;;4995449;28;20030;-39
2022/09/06 01:09:18;;;;;;;5.65;3.15;;;;;;;;;;4987493;28;20038;-39
2022/09/06 01:11:59;;;;;;;2.40;1.80;;;;;;;;;;4995482;28;20550;-40
2022/09/06 01:14:40;;;;;;;5.63;1.80;;;;;;;;;;4995965;28;20035;-39
2022/09/06 01:17:26;;;;;;;2.67;1.95;;;;;;;;;;4995463;28;20042;-39
2022/09/06 01:19:55;;;;;;;3.30;1.70;;;;;;;;;;4964202;28;20065;-40
2022/09/06 01:22:24;;;;;;;2.42;1.58;;;;;;;;;;4995553;28;20018;-40
2022/09/06 01:25:09;;;;;;;3.05;1.60;;;;;;;;;;4994290;28;20030;-39
2022/09/06 01:27:35;;;;;;;3.50;1.83;;;;;;;;;;4995291;28;20066;-39
2022/09/06 01:30:04;;;;;;;2.17;1.38;;;;;;;;;;4994324;28;20019;-39
2022/09/06 01:32:36;;;;;;;2.10;1.65;;;;;;;;;;4994654;28;20026;-39
2022/09/06 01:35:24;;;;;;;3.60;1.90;;;;;;;;;;4993560;28;20527;-40
2022/09/06 01:37:51;;;;;;;1.52;1.42;;;;;;;;;;4986162;28;20042;-39
2022/09/06 01:40:17;;;;;;;1.88;1.52;;;;;;;;;;4995115;28;20057;-39
2022/09/06 01:42:44;;;;;;;2.15;1.70;;;;;;;;;;4993944;28;20488;-49
2022/09/06 01:45:20;;;;;;;1.80;1.60;;;;;;;;;;4994916;28;20049;-39
2022/09/06 01:47:49;;;;;;;3.20;2.05;;;;;;;;;;4994055;28;20027;-39
2022/09/06 01:50:15;;;;;;;1.85;1.60;;;;;;;;;;4994509;28;20057;-39
2022/09/06 01:52:47;;;;;;;1.70;1.60;;;;;;;;;;4994431;28;20503;-49
2022/09/06 01:55:28;;;;;;;1.63;1.38;;;;;;;;;;4994186;28;20097;-39
2022/09/06 01:58:12;;;;;;;4.50;1.65;;;;;;;;;;4993802;28;20550;-39
2022/09/06 02:00:47;;;;;;;4.20;1.40;;;;;;;;;;4994405;28;20026;-39
2022/09/06 02:03:18;;;;;;;1.60;1.30;;;;;;;;;;4994788;28;20031;-39
2022/09/06 02:05:51;;;;;;;3.65;1.60;;;;;;;;;;4994997;28;20039;-49
2022/09/06 02:08:26;;;;;;;2.08;1.40;;;;;;;;;;4988199;28;20093;-39
2022/09/06 02:10:56;;;;;;;2.50;1.52;;;;;;;;;;4994504;28;20467;-39
2022/09/06 02:13:23;;;;;;;2.85;1.70;;;;;;;;;;4994372;28;20022;-39
2022/09/06 02:15:58;;;;;;;5.68;2.03;;;;;;;;;;4993621;28;20101;-39
2022/09/06 02:18:26;;;;;;;2.05;1.60;;;;;;;;;;4994559;28;20038;-39
2022/09/06 02:20:54;;;;;;;2.08;1.45;;;;;;;;;;4993278;28;20105;-39
2022/09/06 02:23:22;;;;;;;3.10;1.52;;;;;;;;;;4994362;28;20109;-39
2022/09/06 02:25:53;;;;;;;1.90;1.67;;;;;;;;;;4993105;28;20092;-40
2022/09/06 02:28:20;;;;;;;2.30;1.90;;;;;;;;;;4994220;28;20018;-40
2022/09/06 02:30:48;;;;;;;2.03;1.50;;;;;;;;;;4993382;28;20045;-46
2022/09/06 02:33:21;;;;;;;2.47;1.98;;;;;;;;;;4986109;28;20025;-39
2022/09/06 02:35:52;;;;;;;2.63;1.50;;;;;;;;;;4993075;28;20033;-49
2022/09/06 02:38:20;;;;;;;2.07;1.90;;;;;;;;;;4994107;28;20062;-40
2022/09/06 02:40:48;;;;;;;1.60;1.48;;;;;;;;;;4993616;28;20518;-46
2022/09/06 02:43:14;;;;;;;2.40;1.50;;;;;;;;;;4993747;28;20031;-39
2022/09/06 02:45:39;;;;;;;3.15;1.83;;;;;;;;;;4993779;28;20150;-39
2022/09/06 02:48:05;;;;;;;2.03;1.52;;;;;;;;;;4993326;28;20580;-40
2022/09/06 02:50:32;;;;;;;2.50;1.70;;;;;;;;;;4993127;28;20027;-39
2022/09/06 02:53:11;;;;;;;2.25;1.77;;;;;;;;;;4992939;28;20045;-39
2022/09/06 02:55:38;;;;;;;2.05;1.60;;;;;;;;;;4993227;28;20030;-39
2022/09/06 02:58:05;;;;;;;2.58;1.65;;;;;;;;;;4992553;28;20026;-40
2022/09/06 03:00:31;;;;;;;2.75;1.70;;;;;;;;;;4993317;28;20031;-40
2022/09/06 03:02:57;;;;;;;2.20;1.60;;;;;;;;;;4992729;28;20084;-39
2022/09/06 03:05:24;;;;;;;2.25;1.73;;;;;;;;;;4994162;28;20044;-40
2022/09/06 03:07:51;;;;;;;3.25;1.90;;;;;;;;;;4992267;28;20446;-39
2022/09/06 03:10:17;;;;;;;4.97;1.90;;;;;;;;;;4993850;28;20125;-39
2022/09/06 03:12:43;;;;;;;3.00;2.03;;;;;;;;;;4993169;28;20027;-39
2022/09/06 03:15:10;;;;;;;2.47;1.75;;;;;;;;;;4992078;28;20041;-39
2022/09/06 03:17:36;;;;;;;2.63;1.90;;;;;;;;;;4993212;28;20058;-39
2022/09/06 03:20:02;;;;;;;5.30;2.78;;;;;;;;;;4992354;28;20053;-39
2022/09/06 03:22:28;;;;;;;2.50;1.77;;;;;;;;;;4992623;28;20026;-38
2022/09/06 03:24:54;;;;;;;6.78;1.90;;;;;;;;;;4992138;28;20349;-40
2022/09/06 03:27:20;;;;;;;4.60;1.60;;;;;;;;;;4992661;28;20050;-39
2022/09/06 03:29:46;;;;;;;3.72;2.15;;;;;;;;;;4992761;28;20027;-39
2022/09/06 03:32:12;;;;;;;2.78;2.15;;;;;;;;;;4992949;28;20028;-40
2022/09/06 03:34:37;;;;;;;5.22;2.10;;;;;;;;;;4992586;28;20539;-39
2022/09/06 03:37:04;;;;;;;4.07;1.80;;;;;;;;;;4991876;28;20026;-40
2022/09/06 03:39:29;;;;;;;3.10;2.20;;;;;;;;;;4992915;28;20026;-40
2022/09/06 03:41:55;;;;;;;3.67;2.45;;;;;;;;;;4991907;28;20037;-40
2022/09/06 03:44:21;;;;;;;4.95;1.63;;;;;;;;;;4992789;28;20026;-44
2022/09/06 03:46:48;;;;;;;4.57;2.42;;;;;;;;;;4992313;28;20138;-50
2022/09/06 03:49:14;;;;;;;2.78;2.25;;;;;;;;;;4992053;28;20034;-40
2022/09/06 03:51:40;;;;;;;2.85;1.80;;;;;;;;;;4992335;28;20030;-41
2022/09/06 03:54:06;;;;;;;3.50;2.17;;;;;;;;;;4991397;28;20519;-42
2022/09/06 03:56:32;;;;;;;3.80;1.80;;;;;;;;;;4992084;28;20034;-43
2022/09/06 03:58:58;;;;;;;4.60;1.67;;;;;;;;;;4991816;28;20034;-43
2022/09/06 04:01:24;;;;;;;3.20;2.05;;;;;;;;;;4992427;28;20109;-46
2022/09/06 04:03:50;;;;;;;3.08;1.55;;;;;;;;;;4991584;28;20106;-52
2022/09/06 04:06:16;;;;;;;4.43;2.10;;;;;;;;;;4994142;28;20113;-41
2022/09/06 04:08:42;;;;;;;2.33;1.85;;;;;;;;;;4992270;28;20027;-41
2022/09/06 04:11:09;;;;;;;2.20;2.00;;;;;;;;;;4992191;28;20050;-46
2022/09/06 04:13:35;;;;;;;4.22;2.50;;;;;;;;;;4992561;28;20058;-42
2022/09/06 04:16:01;;;;;;;3.38;2.40;;;;;;;;;;4991621;28;20038;-39
2022/09/06 04:18:27;;;;;;;3.83;1.90;;;;;;;;;;4992110;28;20093;-39
2022/09/06 04:20:57;;;;;;;2.95;1.90;;;;;;;;;;4991531;28;20030;-47
2022/09/06 04:23:24;;;;;;;3.15;2.30;;;;;;;;;;4992217;28;20034;-39
2022/09/06 04:25:51;;;;;;;2.72;1.90;;;;;;;;;;4983686;28;20030;-49
2022/09/06 04:28:18;;;;;;;4.10;2.10;;;;;;;;;;4992136;28;20106;-39
2022/09/06 04:30:44;;;;;;;2.47;1.85;;;;;;;;;;4992226;28;20038;-39
2022/09/06 04:33:11;;;;;;;2.75;1.75;;;;;;;;;;4990912;28;20612;-39
2022/09/06 04:35:37;;;;;;;2.78;1.95;;;;;;;;;;4992215;28;20038;-39
2022/09/06 04:38:03;;;;;;;4.20;2.35;;;;;;;;;;4991070;28;20065;-40
2022/09/06 04:40:29;;;;;;;3.75;1.83;;;;;;;;;;4992384;28;20172;-39
2022/09/06 04:42:55;;;;;;;2.25;1.80;;;;;;;;;;4991495;28;20057;-39
2022/09/06 04:45:21;;;;;;;2.50;2.25;;;;;;;;;;4991793;28;20069;-39
2022/09/06 04:47:49;;;;;;;1.98;1.77;;;;;;;;;;4991963;28;20559;-39
2022/09/06 04:50:15;;;;;;;2.67;1.73;;;;;;;;;;4991253;28;20033;-39
2022/09/06 04:52:41;;;;;;;2.33;1.88;;;;;;;;;;4991857;28;20042;-39
2022/09/06 04:55:07;;;;;;;2.75;2.10;;;;;;;;;;4990928;28;20026;-39
2022/09/06 04:57:33;;;;;;;2.53;1.73;;;;;;;;;;4991898;28;20026;-39
2022/09/06 04:59:59;;;;;;;2.40;1.77;;;;;;;;;;4991093;28;20026;-39
2022/09/06 05:02:25;;;;;;;2.72;1.75;;;;;;;;;;4991651;28;20026;-39
2022/09/06 05:04:52;;;;;;;2.30;1.70;;;;;;;;;;4995087;28;20030;-39
2022/09/06 05:07:18;;;;;;;2.88;1.70;;;;;;;;;;4992981;28;20030;-39
2022/09/06 05:09:44;;;;;;;3.63;2.47;;;;;;;;;;4995443;28;20097;-40
2022/09/06 05:12:10;;;;;;;3.92;2.25;;;;;;;;;;4993241;28;20495;-39
2022/09/06 05:14:36;;;;;;;2.03;1.83;;;;;;;;;;4995814;28;20054;-39
2022/09/06 05:17:02;;;;;;;2.80;1.88;;;;;;;;;;4994625;28;20061;-39
2022/09/06 05:19:28;;;;;;;2.20;1.80;;;;;;;;;;4995265;28;20026;-40
2022/09/06 05:21:54;;;;;;;2.65;2.00;;;;;;;;;;4995123;28;20022;-49
2022/09/06 05:24:20;;;;;;;3.55;1.73;;;;;;;;;;4994865;28;20109;-42
2022/09/06 05:26:46;;;;;;;2.80;1.90;;;;;;;;;;4994680;28;20042;-39
2022/09/06 05:29:12;;;;;;;2.00;1.60;;;;;;;;;;4994554;28;20026;-39
2022/09/06 05:31:38;;;;;;;2.47;1.83;;;;;;;;;;4995149;28;20022;-39
2022/09/06 05:34:04;;;;;;;2.53;1.95;;;;;;;;;;4994151;28;20498;-39
2022/09/06 05:36:30;;;;;;;2.45;1.58;;;;;;;;;;4994327;28;20114;-39
2022/09/06 05:38:57;;;;;;;3.03;1.95;;;;;;;;;;4994744;28;20034;-49
2022/09/06 05:41:23;;;;;;;2.30;1.60;;;;;;;;;;4991127;28;20100;-39
2022/09/06 05:43:49;;;;;;;3.22;1.77;;;;;;;;;;4993705;28;20036;-39
2022/09/06 05:46:15;;;;;;;2.65;1.75;;;;;;;;;;4992242;28;20633;-39
2022/09/06 05:48:42;;;;;;;8.05;2.72;;;;;;;;;;5000259;28;20022;-39
2022/09/06 05:51:11;;;;;;;4.43;2.75;;;;;;;;;;4990896;28;20031;-39
2022/09/06 05:53:38;;;;;;;2.97;2.67;;;;;;;;;;4992350;28;20085;-39
2022/09/06 05:56:05;;;;;;;3.75;2.55;;;;;;;;;;4995306;28;20102;-39
2022/09/06 05:58:31;;;;;;;3.35;2.40;;;;;;;;;;4998187;28;20473;-41
2022/09/06 06:01:16;;;;;;;6.30;2.58;;;;;;;;;;4997266;28;20109;-45
2022/09/06 06:03:42;;;;;;;5.57;2.72;;;;;;;;;;4998460;28;20034;-39
2022/09/06 06:06:09;;;;;;;7.07;2.75;;;;;;;;;;4997112;28;20407;-39
2022/09/06 06:08:35;;;;;;;4.28;2.47;;;;;;;;;;5003266;28;20053;-39
2022/09/06 06:11:02;;;;;;;4.18;2.78;;;;;;;;;;4997303;28;20057;-39
2022/09/06 06:13:28;;;;;;;3.00;2.40;;;;;;;;;;4996258;28;20492;-40
2022/09/06 06:15:55;;;;;;;4.78;3.00;;;;;;;;;;4997043;28;20415;-41
2022/09/06 06:18:21;;;;;;;4.30;3.17;;;;;;;;;;4999395;28;20033;-39
2022/09/06 06:20:47;;;;;;;3.60;2.80;;;;;;;;;;4996040;28;20062;-39
2022/09/06 06:23:16;;;;;;;8.98;2.67;;;;;;;;;;4998479;28;20494;-39
2022/09/06 06:25:42;;;;;;;3.03;2.70;;;;;;;;;;4994680;28;20030;-39
2022/09/06 06:28:08;;;;;;;3.28;2.42;;;;;;;;;;4993715;28;20030;-39
2022/09/06 06:30:34;;;;;;;4.40;2.15;;;;;;;;;;4992917;28;20030;-42
2022/09/06 06:33:01;;;;;;;3.40;2.40;;;;;;;;;;4993122;28;20022;-47
2022/09/06 06:35:27;;;;;;;3.03;2.35;;;;;;;;;;4992392;28;20447;-41
2022/09/06 06:37:53;;;;;;;3.08;2.50;;;;;;;;;;4993828;28;20026;-39
2022/09/06 06:40:19;;;;;;;3.35;2.30;;;;;;;;;;4991547;28;20120;-41
2022/09/06 06:42:45;;;;;;;3.58;2.00;;;;;;;;;;4993822;28;20109;-39
2022/09/06 06:45:11;;;;;;;3.63;1.90;;;;;;;;;;4992917;28;20039;-39
2022/09/06 06:47:37;;;;;;;3.10;2.35;;;;;;;;;;4993788;28;20510;-39
2022/09/06 06:50:03;;;;;;;3.15;2.20;;;;;;;;;;4993171;28;20022;-39
2022/09/06 06:52:29;;;;;;;2.60;2.00;;;;;;;;;;4993387;28;20018;-39
2022/09/06 06:54:55;;;;;;;3.00;2.20;;;;;;;;;;4994103;28;20037;-39
2022/09/06 06:57:21;;;;;;;5.30;1.77;;;;;;;;;;4992970;28;20026;-39
2022/09/06 06:59:47;;;;;;;2.90;1.85;;;;;;;;;;4994032;28;20392;-40
2022/09/06 07:02:14;;;;;;;3.08;2.00;;;;;;;;;;4992878;28;20018;-39
2022/09/06 07:04:40;;;;;;;5.40;2.35;;;;;;;;;;4995072;28;20058;-39
2022/09/06 07:07:07;;;;;;;3.58;1.85;;;;;;;;;;5012517;28;20066;-39
2022/09/06 07:09:33;;;;;;;2.15;1.92;;;;;;;;;;5013339;28;20025;-41
2022/09/06 07:11:59;;;;;;;2.20;1.95;;;;;;;;;;5012971;28;20033;-48
2022/09/06 07:14:25;;;;;;;3.10;2.28;;;;;;;;;;5012401;28;20177;-40
2022/09/06 07:16:56;;;;;;;2.40;1.73;;;;;;;;;;5013309;28;20581;-39
2022/09/06 07:19:23;;;;;;;2.25;1.98;;;;;;;;;;5012432;28;20274;-39
2022/09/06 07:21:49;;;;;;;2.70;2.20;;;;;;;;;;5013356;28;20028;-39
2022/09/06 07:24:15;;;;;;;3.00;1.77;;;;;;;;;;5012361;28;20101;-40
2022/09/06 07:26:41;;;;;;;3.75;2.13;;;;;;;;;;5012883;28;20471;-39
2022/09/06 07:29:07;;;;;;;4.57;2.03;;;;;;;;;;5012234;28;20118;-39
2022/09/06 07:31:34;;;;;;;2.55;2.05;;;;;;;;;;5012151;28;20455;-40
2022/09/06 07:34:00;;;;;;;2.88;2.17;;;;;;;;;;5012683;28;20022;-48
2022/09/06 07:36:26;;;;;;;5.70;2.50;;;;;;;;;;5012510;28;20112;-42
2022/09/06 07:38:53;;;;;;;3.50;2.25;;;;;;;;;;5012851;28;20463;-40
2022/09/06 07:41:19;;;;;;;2.10;1.83;;;;;;;;;;5012133;28;20106;-40
2022/09/06 07:43:45;;;;;;;3.65;2.15;;;;;;;;;;5012589;28;20025;-39
2022/09/06 07:46:12;;;;;;;4.07;2.45;;;;;;;;;;5011864;28;20026;-39
2022/09/06 07:48:40;;;;;;;3.42;1.73;;;;;;;;;;5012658;28;20029;-42
2022/09/06 07:51:07;;;;;;;2.40;2.10;;;;;;;;;;5011870;28;20021;-40
2022/09/06 07:53:34;;;;;;;4.25;2.60;;;;;;;;;;5012640;28;20014;-39
2022/09/06 07:56:00;;;;;;;3.15;2.13;;;;;;;;;;5012724;28;20030;-40
2022/09/06 07:58:27;;;;;;;2.55;1.90;;;;;;;;;;5011798;28;20026;-39
2022/09/06 08:00:53;;;;;;;4.57;2.38;;;;;;;;;;5012543;28;20026;-39
2022/09/06 08:03:19;;;;;;;2.45;2.25;;;;;;;;;;5011716;28;20151;-41
2022/09/06 08:05:48;;;;;;;2.92;2.20;;;;;;;;;;5001907;28;20121;-40
2022/09/06 08:08:14;;;;;;;3.30;2.15;;;;;;;;;;4991828;28;20514;-39
2022/09/06 08:10:40;;;;;;;2.72;1.98;;;;;;;;;;4993050;28;20022;-39
2022/09/06 08:13:06;;;;;;;2.50;1.83;;;;;;;;;;4992594;28;20133;-42
2022/09/06 08:15:32;;;;;;;1.88;1.52;;;;;;;;;;4992749;28;20480;-39
2022/09/06 08:17:58;;;;;;;3.80;1.92;;;;;;;;;;4992808;28;20063;-40
2022/09/06 08:20:24;;;;;;;1.95;1.67;;;;;;;;;;4991943;28;20079;-39
2022/09/06 08:22:50;;;;;;;3.00;1.80;;;;;;;;;;4992799;28;20050;-39
2022/09/06 08:25:16;;;;;;;4.65;1.85;;;;;;;;;;4991789;28;20034;-39
2022/09/06 08:27:42;;;;;;;3.42;1.98;;;;;;;;;;4992775;28;20376;-39
2022/09/06 08:30:08;;;;;;;2.55;1.92;;;;;;;;;;4992070;28;20105;-40
2022/09/06 08:32:37;;;;;;;6.80;1.88;;;;;;;;;;4992692;28;20460;-39
2022/09/06 08:35:03;;;;;;;2.72;2.13;;;;;;;;;;4992581;28;20026;-47
2022/09/06 08:37:29;;;;;;;2.83;1.90;;;;;;;;;;4974965;28;20033;-39
2022/09/06 08:39:55;;;;;;;3.95;1.83;;;;;;;;;;4992500;28;20472;-39
2022/09/06 08:42:21;;;;;;;2.58;1.73;;;;;;;;;;4992592;28;20023;-39
2022/09/06 08:44:50;;;;;;;2.80;2.10;;;;;;;;;;4996453;28;20064;-39
2022/09/06 08:47:17;;;;;;;3.00;2.30;;;;;;;;;;4995325;28;20480;-39
2022/09/06 08:49:53;;;;;;;3.00;1.80;;;;;;;;;;4996293;28;20023;-39
2022/09/06 08:52:32;;;;;;;2.97;1.83;;;;;;;;;;4995885;28;20027;-39
2022/09/06 08:55:03;;;;;;;3.05;1.88;;;;;;;;;;4996194;28;20395;-39
2022/09/06 08:57:48;;;;;;;1.83;1.40;;;;;;;;;;4996023;28;20022;-39
2022/09/06 09:00:14;;;;;;;2.22;1.60;;;;;;;;;;4995332;28;20072;-39
2022/09/06 09:02:42;;;;;;;2.30;1.67;;;;;;;;;;4996222;28;20030;-39
2022/09/06 09:05:12;;;;;;;2.97;1.90;;;;;;;;;;5000423;28;20051;-49
2022/09/06 09:07:42;;;;;;;2.70;1.88;;;;;;;;;;5015654;28;20024;-39
2022/09/06 09:10:13;;;;;;;3.80;2.20;;;;;;;;;;5015294;28;20478;-46
2022/09/06 09:12:44;;;;;;;3.08;1.95;;;;;;;;;;5016093;28;20053;-39
2022/09/06 09:15:11;;;;;;;2.00;1.60;;;;;;;;;;5014931;28;20029;-42
2022/09/06 09:17:37;;;;;;;6.50;2.00;;;;;;;;;;5015495;28;20108;-39
2022/09/06 09:20:04;;;;;;;4.70;2.33;;;;;;;;;;5015443;28;20123;-39
2022/09/06 09:22:30;;;;;;;2.55;1.77;;;;;;;;;;5014671;28;20034;-39
2022/09/06 09:24:58;;;;;;;3.10;1.90;;;;;;;;;;5015581;28;20044;-39
2022/09/06 09:27:25;;;;;;;2.35;1.90;;;;;;;;;;5014340;28;20022;-39
2022/09/06 09:29:57;;;;;;;2.42;1.60;;;;;;;;;;5015050;28;20026;-39
2022/09/06 09:32:30;;;;;;;4.20;1.88;;;;;;;;;;5014435;28;20379;-39
2022/09/06 09:35:14;;;;;;;4.30;1.60;;;;;;;;;;5015138;28;20517;-39
2022/09/06 09:37:40;;;;;;;1.70;1.60;;;;;;;;;;5015113;28;20030;-39
2022/09/06 09:40:12;;;;;;;3.22;2.10;;;;;;;;;;5015045;28;20028;-39
2022/09/06 09:42:38;;;;;;;4.38;2.03;;;;;;;;;;5015452;28;20030;-39
2022/09/06 09:45:19;;;;;;;2.65;2.22;;;;;;;;;;5014680;28;20018;-39
2022/09/06 09:47:45;;;;;;;5.05;1.83;;;;;;;;;;5014968;28;20026;-39
2022/09/06 09:50:22;;;;;;;2.25;1.88;;;;;;;;;;5014146;28;20105;-45
2022/09/06 09:52:48;;;;;;;4.78;1.75;;;;;;;;;;5014923;28;20037;-39
2022/09/06 09:55:14;;;;;;;3.60;1.92;;;;;;;;;;5013010;28;20022;-39
2022/09/06 09:57:49;;;;;;;2.80;2.00;;;;;;;;;;5014981;28;20032;-39
2022/09/06 10:00:30;;;;;;;3.42;1.98;;;;;;;;;;5013394;28;20467;-39
2022/09/06 10:02:57;;;;;;;5.32;2.08;;;;;;;;;;5014861;28;20109;-39
2022/09/06 10:05:23;;;;;;;5.05;2.72;;;;;;;;;;5006210;28;20041;-39
2022/09/06 10:07:50;;;;;;;3.78;2.17;;;;;;;;;;4995063;28;20073;-39
2022/09/06 10:10:30;;;;;;;3.90;1.88;;;;;;;;;;4993899;28;20387;-39
2022/09/06 10:13:15;;;;;;;3.97;2.30;;;;;;;;;;4995621;28;20408;-39
2022/09/06 10:15:42;;;;;;;4.60;2.28;;;;;;;;;;4994877;28;20038;-39
2022/09/06 10:18:31;;;;;;;3.97;1.92;;;;;;;;;;4994893;28;20022;-39
2022/09/06 10:21:04;;;;;;;5.75;2.00;;;;;;;;;;4994868;28;20031;-39
2022/09/06 10:23:59;;;;;;;7.18;1.90;;;;;;;;;;4993969;28;20022;-39
2022/09/06 10:26:44;;;;;;;5.38;2.05;;;;;;;;;;4980757;28;20049;-39
2022/09/06 10:29:10;;;;;;;4.07;1.77;;;;;;;;;;4994438;28;20034;-47
2022/09/06 10:31:40;;;;;;;7.03;2.15;;;;;;;;;;4993617;28;20101;-40
2022/09/06 10:34:06;;;;;;;4.13;1.95;;;;;;;;;;4994537;28;20054;-40
2022/09/06 10:36:37;;;;;;;3.38;2.13;;;;;;;;;;4993712;28;20488;-39
2022/09/06 10:39:06;;;;;;;4.93;2.22;;;;;;;;;;4994356;28;20022;-39
2022/09/06 10:41:47;;;;;;;4.60;1.98;;;;;;;;;;4993313;28;20024;-40
2022/09/06 10:44:21;;;;;;;2.13;1.73;;;;;;;;;;4993912;28;20023;-49
2022/09/06 10:46:50;;;;;;;3.10;2.08;;;;;;;;;;4993927;28;20038;-39
2022/09/06 10:49:18;;;;;;;6.55;2.20;;;;;;;;;;4993502;28;20033;-39
2022/09/06 10:51:53;;;;;;;5.20;1.70;;;;;;;;;;4994161;28;20022;-39
2022/09/06 10:54:23;;;;;;;2.38;1.67;;;;;;;;;;4993386;28;20105;-39
2022/09/06 10:56:58;;;;;;;5.55;2.10;;;;;;;;;;4994024;28;20030;-39
2022/09/06 10:59:26;;;;;;;2.22;1.85;;;;;;;;;;4993276;28;20019;-40
2022/09/06 11:02:01;;;;;;;2.38;1.63;;;;;;;;;;4993951;28;20026;-42
2022/09/06 11:04:33;;;;;;;3.10;1.70;;;;;;;;;;4993171;28;20027;-41
2022/09/06 11:06:59;;;;;;;;;;;;;;;;;;4974790;28;20035;-41
2022/09/06 11:09:44;;;;;;;4.00;1.60;;;;;;;;;;4973748;28;19929;-39
2022/09/06 11:12:30;;;;;;;1.75;1.30;;;;;;;;;;4974361;28;20035;-39
2022/09/06 11:14:56;;;;;;;4.53;1.77;;;;;;;;;;4964219;28;20053;-39
2022/09/06 11:17:22;;;;;;;2.50;1.92;;;;;;;;;;4973259;28;20035;-39
2022/09/06 11:19:51;;;;;;;4.22;1.90;;;;;;;;;;4974209;28;20023;-39
2022/09/06 11:22:17;;;;;;;3.53;2.03;;;;;;;;;;4973356;28;20030;-48
2022/09/06 11:24:43;;;;;;;5.85;2.00;;;;;;;;;;4974201;28;20027;-40
2022/09/06 11:27:28;;;;;;;4.00;2.03;;;;;;;;;;4973638;28;20038;-40
2022/09/06 11:29:55;;;;;;;4.97;2.03;;;;;;;;;;4974074;28;20058;-39
2022/09/06 11:32:24;;;;;;;3.22;2.20;;;;;;;;;;4972947;28;20027;-39
2022/09/06 11:34:54;;;;;;;3.80;1.63;;;;;;;;;;4973999;28;20082;-40
2022/09/06 11:37:25;;;;;;;2.75;1.67;;;;;;;;;;4973395;28;20046;-41
2022/09/06 11:40:23;;;;;;;2.85;1.50;;;;;;;;;;4973910;28;20023;-39
2022/09/06 11:42:49;;;;;;;2.53;1.65;;;;;;;;;;4941219;28;20341;-40
2022/09/06 11:45:39;;;;;;;3.65;1.63;;;;;;;;;;4956153;28;20073;-47
2022/09/06 11:48:23;;;;;;;4.10;1.80;;;;;;;;;;4973631;28;20098;-39
2022/09/06 11:50:58;;;;;;;5.10;2.17;;;;;;;;;;4973761;28;20049;-39
2022/09/06 11:53:25;;;;;;;3.55;1.90;;;;;;;;;;4972760;28;20026;-40
2022/09/06 11:56:09;;;;;;;3.67;1.65;;;;;;;;;;4973739;28;20031;-39
2022/09/06 11:58:41;;;;;;;3.15;1.80;;;;;;;;;;4972910;28;20105;-39
2022/09/06 12:01:15;;;;;;;3.88;2.15;;;;;;;;;;4973695;28;20027;-42
2022/09/06 12:03:47;;;;;;;4.30;1.77;;;;;;;;;;4972793;28;20105;-40
2022/09/06 12:06:16;;;;;;;3.95;1.90;;;;;;;;;;5001509;28;20494;-39
2022/09/06 12:08:42;;;;;;;5.53;2.35;;;;;;;;;;5011814;28;20057;-39
2022/09/06 12:11:27;;;;;;;3.45;2.00;;;;;;;;;;5012448;28;20026;-39
2022/09/06 12:13:53;;;;;;;3.33;1.90;;;;;;;;;;5012335;28;20081;-39
2022/09/06 12:16:19;;;;;;;2.83;2.00;;;;;;;;;;5011782;28;20029;-50
2022/09/06 12:18:49;;;;;;;3.40;2.10;;;;;;;;;;5011711;28;20037;-40
2022/09/06 12:21:33;;;;;;;4.85;2.42;;;;;;;;;;5012466;28;20089;-39
2022/09/06 12:24:00;;;;;;;4.00;1.95;;;;;;;;;;5012318;28;20093;-39
2022/09/06 12:26:49;;;;;;;5.40;1.90;;;;;;;;;;5011538;28;20114;-39
2022/09/06 12:29:15;;;;;;;4.93;2.45;;;;;;;;;;5012408;28;20463;-40
2022/09/06 12:31:56;;;;;;;2.92;1.75;;;;;;;;;;4993938;28;20428;-39
2022/09/06 12:34:24;;;;;;;2.97;2.03;;;;;;;;;;5011328;28;20083;-41
2022/09/06 12:36:53;;;;;;;4.25;1.77;;;;;;;;;;5012118;28;20021;-39
2022/09/06 12:39:22;;;;;;;12.45;2.00;;;;;;;;;;5011785;28;20024;-47
2022/09/06 12:41:50;;;;;;;3.88;1.80;;;;;;;;;;5012127;28;20018;-39
2022/09/06 12:44:17;;;;;;;4.53;2.63;;;;;;;;;;4994388;28;20121;-39
2022/09/06 12:46:47;;;;;;;5.05;2.03;;;;;;;;;;5011162;28;20042;-39
2022/09/06 12:49:14;;;;;;;2.93;1.97;;;;;;;;;;5011764;28;20030;-39
2022/09/06 12:51:41;;;;;;;3.95;2.05;;;;;;;;;;5011054;28;20022;-39
2022/09/06 12:54:16;;;;;;;6.55;2.35;;;;;;;;;;5011538;28;20434;-39
2022/09/06 12:56:42;;;;;;;2.65;1.77;;;;;;;;;;5011295;28;20033;-39
2022/09/06 12:59:13;;;;;;;2.97;1.80;;;;;;;;;;5011950;28;20490;-39
2022/09/06 13:01:40;;;;;;;4.70;2.03;;;;;;;;;;5011240;28;20030;-39
2022/09/06 13:04:14;;;;;;;4.88;1.95;;;;;;;;;;5011679;28;20375;-39
2022/09/06 13:06:43;;;;;;;2.20;2.00;;;;;;;;;;4993222;28;20119;-39
2022/09/06 13:09:11;;;;;;;3.70;1.83;;;;;;;;;;4992215;28;20027;-39
2022/09/06 13:11:39;;;;;;;3.05;2.33;;;;;;;;;;4991325;28;20034;-39
2022/09/06 13:14:12;;;;;;;4.15;1.90;;;;;;;;;;4992759;28;20077;-39
2022/09/06 13:16:49;;;;;;;6.13;2.25;;;;;;;;;;4991433;28;20034;-39
2022/09/06 13:19:16;;;;;;;3.40;2.00;;;;;;;;;;4992047;28;20026;-39
2022/09/06 13:21:43;;;;;;;4.80;2.10;;;;;;;;;;4991241;28;20049;-39
2022/09/06 13:24:39;;;;;;;3.53;1.90;;;;;;;;;;4992201;28;20034;-39
2022/09/06 13:27:24;;;;;;;2.75;1.80;;;;;;;;;;4979891;28;20049;-39
2022/09/06 13:29:57;;;;;;;3.00;2.20;;;;;;;;;;4993067;28;20468;-39
2022/09/06 13:32:24;;;;;;;2.08;1.60;;;;;;;;;;4995186;28;20018;-49
2022/09/06 13:34:55;;;;;;;3.92;1.90;;;;;;;;;;4995526;28;20049;-39
2022/09/06 13:37:21;;;;;;;;;;;;;;;;;;4995904;28;20038;-47
2022/09/06 13:39:47;;;;;;;2.50;1.75;;;;;;;;;;4994761;28;20386;-39
2022/09/06 13:42:25;;;;;;;2.35;1.73;;;;;;;;;;4995206;28;20505;-39
2022/09/06 13:44:51;;;;;;;2.83;1.90;;;;;;;;;;4995592;28;20028;-39
2022/09/06 13:47:17;;;;;;;4.75;2.35;;;;;;;;;;4995392;28;20085;-39
2022/09/06 13:49:43;;;;;;;2.72;1.83;;;;;;;;;;4994391;28;20046;-39
2022/09/06 13:52:09;;;;;;;5.10;2.10;;;;;;;;;;4995243;28;20022;-39
2022/09/06 13:54:35;;;;;;;3.78;1.88;;;;;;;;;;4994168;28;20037;-39
2022/09/06 13:57:01;;;;;;;4.70;1.92;;;;;;;;;;4995132;28;20030;-39
2022/09/06 13:59:27;;;;;;;3.90;2.00;;;;;;;;;;4994315;28;20031;-40
2022/09/06 14:02:08;;;;;;;4.40;2.28;;;;;;;;;;4995182;28;20030;-39
2022/09/06 14:04:35;;;;;;;3.83;1.98;;;;;;;;;;4994964;28;20027;-39
2022/09/06 14:07:01;;;;;;;3.83;2.00;;;;;;;;;;5014366;28;20034;-39
2022/09/06 14:09:28;;;;;;;2.70;2.15;;;;;;;;;;5013650;28;20085;-41
2022/09/06 14:11:54;;;;;;;4.45;2.33;;;;;;;;;;5014442;28;20423;-39
2022/09/06 14:14:21;;;;;;;5.22;2.28;;;;;;;;;;5013731;28;20058;-39
2022/09/06 14:16:47;;;;;;;3.60;1.83;;;;;;;;;;5013632;28;20045;-39
2022/09/06 14:19:14;;;;;;;3.70;2.25;;;;;;;;;;5014292;28;20053;-39
2022/09/06 14:21:40;;;;;;;8.13;2.53;;;;;;;;;;5013699;28;20018;-39
2022/09/06 14:24:06;;;;;;;3.40;2.10;;;;;;;;;;5014235;28;20386;-39
2022/09/06 14:26:33;;;;;;;4.32;2.35;;;;;;;;;;5013333;28;20036;-39
2022/09/06 14:28:59;;;;;;;4.68;2.08;;;;;;;;;;5014234;28;20049;-39
2022/09/06 14:31:26;;;;;;;7.72;2.58;;;;;;;;;;5013516;28;20542;-48
2022/09/06 14:33:52;;;;;;;4.95;2.10;;;;;;;;;;5013705;28;20026;-39
2022/09/06 14:36:19;;;;;;;11.43;3.40;;;;;;;;;;5013827;28;20453;-39
2022/09/06 14:38:46;;;;;;;3.40;2.22;;;;;;;;;;5013349;28;20053;-39
2022/09/06 14:41:13;;;;;;;2.58;2.05;;;;;;;;;;5013494;28;20036;-39
2022/09/06 14:43:39;;;;;;;2.70;2.08;;;;;;;;;;5013189;28;20356;-39
2022/09/06 14:46:06;;;;;;;6.53;2.65;;;;;;;;;;5013734;28;20026;-39
2022/09/06 14:48:32;;;;;;;4.63;2.15;;;;;;;;;;5012811;28;20026;-39
2022/09/06 14:51:01;;;;;;;5.03;2.17;;;;;;;;;;5013737;28;20113;-45
2022/09/06 14:53:27;;;;;;;4.75;2.33;;;;;;;;;;5013097;28;20483;-47